Anderson Island, WA

1:35 PM PST on February 07, 2016 (GMT -0800)
Driftwood Point | | Change Station
CLOSE
Current Station
Personal Weather Station
Location: Lakebay, WA
Elevation: 36 ft
Nearby Weather Stations

Elev 36 ft 47.22 °N, 122.72 °W | Updated 14 minutes ago

Partly Cloudy
Partly Cloudy
47.8 °F
Feels Like 48 °F
N
2.7
Wind Variable Wind from NE

Today
High -- | Low -- °F
--% Chance of Precip.
Yesterday
High -- | Low -- °F
Precip. -- in
Pressure 30.55 in
Visibility 10.0 miles
Clouds Few 8000 ft
Windchill 48 °F
Dew Point 44 °F
Humidity 86%
Rainfall 0.00 in
Snow Depth Not available.
7:28 AM 5:21 PM
Waning Crescent, 1% visible
METAR KGRF 072058Z 24004KT 10SM FEW080 10/05 A3053 RMK AO2A SLP344 T01020049 58002 $
Pressure 30.55 in
Visibility 10.0 miles
Clouds Few 8000 ft
Windchill 48 °F
Dew Point 44 °F
Humidity 86%
Rainfall 0.00 in
Snow Depth Not available.
7:28 AM 5:21 PM
Waning Crescent, 1% visible
METAR KGRF 072058Z 24004KT 10SM FEW080 10/05 A3053 RMK AO2A SLP344 T01020049 58002 $

10-Day Weather Forecast

Almanac

Astronomy

Feb. 07, 2016 Rise Set
Actual Time
Civil Twilight
Nautical Twilight
Astronomical Twilight
Moon
Length of Visible Light
Length of Day
Tomorrow will be .
, % of the Moon is Illuminated

Today's Extremes

State Highs State Lows

Community

WunderPhotos

Upload Photos

1,891,301 photos uploaded!

WunderBlog® & News

Nearby

Air Quality

  Air Quality AQ Index Pollutant
Not available.

Snow Depth

Station Depth Elevation

Earthquake Activity

City Distance Mag. Time & Date
Minimum magnitude displayed is 2.5.

Coastal Water Temperatures

Place Temperature

Stations

Nearby Weather Stations

Station Location Temp. Windchill Dew Point Humidity Wind Precip. Elev Updated Type
                   

Watches & Warnings

There are currently no watches in effect.